sensor_id;sensor_type;location;lat;lon;timestamp;P1;durP1;ratioP1;P2;durP2;ratioP2
6243;SDS011;3155;49.940;8.450;2023-11-18T00:00:00;28.42;;;12.27;;
6243;SDS011;3155;49.940;8.450;2023-11-18T00:02:27;28.10;;;12.40;;
6243;SDS011;3155;49.940;8.450;2023-11-18T00:04:54;21.93;;;10.87;;
6243;SDS011;3155;49.940;8.450;2023-11-18T00:07:22;26.60;;;12.43;;
6243;SDS011;3155;49.940;8.450;2023-11-18T00:09:49;26.52;;;11.65;;
6243;SDS011;3155;49.940;8.450;2023-11-18T00:12:16;27.73;;;12.35;;
6243;SDS011;3155;49.940;8.450;2023-11-18T00:14:43;26.20;;;12.77;;
6243;SDS011;3155;49.940;8.450;2023-11-18T00:17:11;28.00;;;12.85;;
6243;SDS011;3155;49.940;8.450;2023-11-18T00:19:39;26.73;;;12.05;;
6243;SDS011;3155;49.940;8.450;2023-11-18T00:22:06;24.15;;;11.80;;
6243;SDS011;3155;49.940;8.450;2023-11-18T00:24:33;24.98;;;11.30;;
6243;SDS011;3155;49.940;8.450;2023-11-18T00:27:01;26.75;;;11.75;;
6243;SDS011;3155;49.940;8.450;2023-11-18T00:29:34;24.75;;;11.77;;
6243;SDS011;3155;49.940;8.450;2023-11-18T00:32:03;24.38;;;11.30;;
6243;SDS011;3155;49.940;8.450;2023-11-18T00:34:31;29.08;;;12.25;;
6243;SDS011;3155;49.940;8.450;2023-11-18T00:36:58;29.38;;;12.30;;
6243;SDS011;3155;49.940;8.450;2023-11-18T00:39:27;26.25;;;12.07;;
6243;SDS011;3155;49.940;8.450;2023-11-18T00:41:57;31.95;;;12.55;;
6243;SDS011;3155;49.940;8.450;2023-11-18T00:44:24;27.30;;;11.90;;
6243;SDS011;3155;49.940;8.450;2023-11-18T00:46:51;28.10;;;11.40;;
6243;SDS011;3155;49.940;8.450;2023-11-18T00:49:18;31.35;;;12.98;;
6243;SDS011;3155;49.940;8.450;2023-11-18T00:51:45;25.52;;;11.90;;
6243;SDS011;3155;49.940;8.450;2023-11-18T00:54:13;28.73;;;11.80;;
6243;SDS011;3155;49.940;8.450;2023-11-18T00:56:40;28.85;;;11.55;;
6243;SDS011;3155;49.940;8.450;2023-11-18T00:59:10;28.10;;;12.23;;
6243;SDS011;3155;49.940;8.450;2023-11-18T01:01:37;28.73;;;12.90;;
6243;SDS011;3155;49.940;8.450;2023-11-18T01:04:08;34.60;;;13.70;;
6243;SDS011;3155;49.940;8.450;2023-11-18T01:06:35;34.72;;;13.20;;
6243;SDS011;3155;49.940;8.450;2023-11-18T01:09:02;33.30;;;13.10;;
6243;SDS011;3155;49.940;8.450;2023-11-18T01:11:30;34.85;;;14.32;;
6243;SDS011;3155;49.940;8.450;2023-11-18T01:13:57;38.05;;;14.55;;
6243;SDS011;3155;49.940;8.450;2023-11-18T01:16:24;37.45;;;14.13;;
6243;SDS011;3155;49.940;8.450;2023-11-18T01:18:51;31.17;;;13.70;;
6243;SDS011;3155;49.940;8.450;2023-11-18T01:21:18;31.92;;;13.18;;
6243;SDS011;3155;49.940;8.450;2023-11-18T01:23:49;34.40;;;13.55;;
6243;SDS011;3155;49.940;8.450;2023-11-18T01:26:16;38.08;;;14.35;;
6243;SDS011;3155;49.940;8.450;2023-11-18T01:28:43;43.60;;;15.50;;
6243;SDS011;3155;49.940;8.450;2023-11-18T01:31:12;41.97;;;14.27;;
6243;SDS011;3155;49.940;8.450;2023-11-18T01:33:42;38.30;;;14.20;;
6243;SDS011;3155;49.940;8.450;2023-11-18T01:36:11;38.42;;;13.52;;
6243;SDS011;3155;49.940;8.450;2023-11-18T01:38:38;35.25;;;13.77;;
6243;SDS011;3155;49.940;8.450;2023-11-18T01:41:05;38.65;;;13.63;;
6243;SDS011;3155;49.940;8.450;2023-11-18T01:43:33;30.93;;;12.70;;
6243;SDS011;3155;49.940;8.450;2023-11-18T01:46:05;30.80;;;12.35;;
6243;SDS011;3155;49.940;8.450;2023-11-18T01:48:37;33.97;;;13.15;;
6243;SDS011;3155;49.940;8.450;2023-11-18T01:51:04;29.80;;;12.93;;
6243;SDS011;3155;49.940;8.450;2023-11-18T01:53:32;38.50;;;13.80;;
6243;SDS011;3155;49.940;8.450;2023-11-18T01:55:59;38.63;;;14.03;;
6243;SDS011;3155;49.940;8.450;2023-11-18T01:58:26;42.17;;;15.45;;
6243;SDS011;3155;49.940;8.450;2023-11-18T02:00:57;42.88;;;16.33;;
6243;SDS011;3155;49.940;8.450;2023-11-18T02:03:26;51.17;;;17.33;;
6243;SDS011;3155;49.940;8.450;2023-11-18T02:05:54;52.15;;;17.40;;
6243;SDS011;3155;49.940;8.450;2023-11-18T02:08:24;46.92;;;16.48;;
6243;SDS011;3155;49.940;8.450;2023-11-18T02:10:55;41.00;;;16.08;;
6243;SDS011;3155;49.940;8.450;2023-11-18T02:13:25;41.92;;;15.43;;
6243;SDS011;3155;49.940;8.450;2023-11-18T02:15:55;51.57;;;15.10;;
6243;SDS011;3155;49.940;8.450;2023-11-18T02:18:27;52.25;;;15.43;;
6243;SDS011;3155;49.940;8.450;2023-11-18T02:20:56;56.37;;;14.87;;
6243;SDS011;3155;49.940;8.450;2023-11-18T02:23:26;53.47;;;16.15;;
6243;SDS011;3155;49.940;8.450;2023-11-18T02:25:53;54.60;;;15.63;;
6243;SDS011;3155;49.940;8.450;2023-11-18T02:28:21;38.92;;;14.93;;
6243;SDS011;3155;49.940;8.450;2023-11-18T02:30:50;49.25;;;16.42;;
6243;SDS011;3155;49.940;8.450;2023-11-18T02:33:22;43.47;;;15.00;;
6243;SDS011;3155;49.940;8.450;2023-11-18T02:36:26;42.87;;;13.97;;
6243;SDS011;3155;49.940;8.450;2023-11-18T02:39:06;37.65;;;12.73;;
6243;SDS011;3155;49.940;8.450;2023-11-18T02:41:35;56.28;;;14.98;;
6243;SDS011;3155;49.940;8.450;2023-11-18T02:44:05;43.10;;;14.63;;
6243;SDS011;3155;49.940;8.450;2023-11-18T02:46:36;52.38;;;15.23;;
6243;SDS011;3155;49.940;8.450;2023-11-18T02:49:04;79.93;;;15.43;;
6243;SDS011;3155;49.940;8.450;2023-11-18T02:51:31;59.92;;;14.65;;
6243;SDS011;3155;49.940;8.450;2023-11-18T02:54:00;73.50;;;16.25;;
6243;SDS011;3155;49.940;8.450;2023-11-18T02:56:30;65.38;;;14.85;;
6243;SDS011;3155;49.940;8.450;2023-11-18T02:59:02;68.22;;;15.68;;
6243;SDS011;3155;49.940;8.450;2023-11-18T03:01:35;65.82;;;16.52;;
6243;SDS011;3155;49.940;8.450;2023-11-18T03:04:05;41.00;;;15.32;;
6243;SDS011;3155;49.940;8.450;2023-11-18T03:06:37;49.80;;;16.63;;
6243;SDS011;3155;49.940;8.450;2023-11-18T03:09:06;54.40;;;17.50;;
6243;SDS011;3155;49.940;8.450;2023-11-18T03:11:34;54.28;;;18.08;;
6243;SDS011;3155;49.940;8.450;2023-11-18T03:14:01;49.90;;;16.83;;
6243;SDS011;3155;49.940;8.450;2023-11-18T03:16:31;51.13;;;16.35;;
6243;SDS011;3155;49.940;8.450;2023-11-18T03:18:58;48.85;;;17.55;;
6243;SDS011;3155;49.940;8.450;2023-11-18T03:21:25;49.17;;;16.55;;
6243;SDS011;3155;49.940;8.450;2023-11-18T03:23:53;50.97;;;16.83;;
6243;SDS011;3155;49.940;8.450;2023-11-18T03:26:20;57.28;;;18.25;;
6243;SDS011;3155;49.940;8.450;2023-11-18T03:28:53;46.55;;;16.88;;
6243;SDS011;3155;49.940;8.450;2023-11-18T03:31:21;41.13;;;15.23;;
6243;SDS011;3155;49.940;8.450;2023-11-18T03:33:48;44.72;;;16.65;;
6243;SDS011;3155;49.940;8.450;2023-11-18T03:36:15;46.40;;;16.10;;
6243;SDS011;3155;49.940;8.450;2023-11-18T03:38:44;57.45;;;18.00;;
6243;SDS011;3155;49.940;8.450;2023-11-18T03:41:11;58.25;;;19.20;;
6243;SDS011;3155;49.940;8.450;2023-11-18T03:43:39;57.47;;;19.05;;
6243;SDS011;3155;49.940;8.450;2023-11-18T03:46:06;57.92;;;18.73;;
6243;SDS011;3155;49.940;8.450;2023-11-18T03:48:34;66.23;;;20.07;;
6243;SDS011;3155;49.940;8.450;2023-11-18T03:51:01;61.90;;;19.60;;
6243;SDS011;3155;49.940;8.450;2023-11-18T03:53:29;62.60;;;18.88;;
6243;SDS011;3155;49.940;8.450;2023-11-18T03:55:56;58.10;;;18.75;;
6243;SDS011;3155;49.940;8.450;2023-11-18T03:58:24;52.47;;;17.52;;
6243;SDS011;3155;49.940;8.450;2023-11-18T04:00:53;50.63;;;16.57;;
6243;SDS011;3155;49.940;8.450;2023-11-18T04:03:20;51.70;;;16.95;;
6243;SDS011;3155;49.940;8.450;2023-11-18T04:05:47;49.50;;;16.80;;
6243;SDS011;3155;49.940;8.450;2023-11-18T04:08:15;51.83;;;16.75;;
6243;SDS011;3155;49.940;8.450;2023-11-18T04:10:42;38.95;;;15.38;;
6243;SDS011;3155;49.940;8.450;2023-11-18T04:13:09;45.88;;;15.57;;
6243;SDS011;3155;49.940;8.450;2023-11-18T04:15:36;49.63;;;16.60;;
6243;SDS011;3155;49.940;8.450;2023-11-18T04:18:03;44.92;;;15.18;;
6243;SDS011;3155;49.940;8.450;2023-11-18T04:20:32;43.97;;;15.40;;
6243;SDS011;3155;49.940;8.450;2023-11-18T04:22:59;40.05;;;14.68;;
6243;SDS011;3155;49.940;8.450;2023-11-18T04:25:28;38.53;;;14.55;;
6243;SDS011;3155;49.940;8.450;2023-11-18T04:27:55;35.50;;;13.85;;
6243;SDS011;3155;49.940;8.450;2023-11-18T04:30:22;43.90;;;14.65;;
6243;SDS011;3155;49.940;8.450;2023-11-18T04:32:49;41.15;;;14.27;;
6243;SDS011;3155;49.940;8.450;2023-11-18T04:35:18;38.00;;;12.97;;
6243;SDS011;3155;49.940;8.450;2023-11-18T04:37:48;36.78;;;13.77;;
6243;SDS011;3155;49.940;8.450;2023-11-18T04:40:15;36.78;;;12.93;;
6243;SDS011;3155;49.940;8.450;2023-11-18T04:42:42;36.20;;;13.18;;
6243;SDS011;3155;49.940;8.450;2023-11-18T04:45:12;39.42;;;13.95;;
6243;SDS011;3155;49.940;8.450;2023-11-18T04:47:40;39.10;;;14.03;;
6243;SDS011;3155;49.940;8.450;2023-11-18T04:50:10;35.47;;;13.27;;
6243;SDS011;3155;49.940;8.450;2023-11-18T04:52:37;40.13;;;13.03;;
6243;SDS011;3155;49.940;8.450;2023-11-18T04:55:04;36.33;;;13.13;;
6243;SDS011;3155;49.940;8.450;2023-11-18T04:57:32;39.30;;;13.55;;
6243;SDS011;3155;49.940;8.450;2023-11-18T05:00:00;40.35;;;13.88;;
6243;SDS011;3155;49.940;8.450;2023-11-18T05:02:37;40.22;;;13.27;;
6243;SDS011;3155;49.940;8.450;2023-11-18T05:05:04;42.80;;;13.93;;
6243;SDS011;3155;49.940;8.450;2023-11-18T05:07:32;36.10;;;13.40;;
6243;SDS011;3155;49.940;8.450;2023-11-18T05:10:01;43.43;;;13.57;;
6243;SDS011;3155;49.940;8.450;2023-11-18T05:12:29;43.20;;;14.35;;
6243;SDS011;3155;49.940;8.450;2023-11-18T05:14:56;40.07;;;13.87;;
6243;SDS011;3155;49.940;8.450;2023-11-18T05:17:23;45.33;;;13.55;;
6243;SDS011;3155;49.940;8.450;2023-11-18T05:19:52;40.28;;;13.55;;
6243;SDS011;3155;49.940;8.450;2023-11-18T05:22:23;44.35;;;14.77;;
6243;SDS011;3155;49.940;8.450;2023-11-18T05:24:50;43.87;;;13.83;;
6243;SDS011;3155;49.940;8.450;2023-11-18T05:27:17;45.63;;;14.05;;
6243;SDS011;3155;49.940;8.450;2023-11-18T05:29:45;51.57;;;14.03;;
6243;SDS011;3155;49.940;8.450;2023-11-18T05:32:14;42.65;;;13.10;;
6243;SDS011;3155;49.940;8.450;2023-11-18T05:34:42;58.47;;;14.07;;
6243;SDS011;3155;49.940;8.450;2023-11-18T05:37:09;50.85;;;15.63;;
6243;SDS011;3155;49.940;8.450;2023-11-18T05:39:37;84.93;;;16.90;;
6243;SDS011;3155;49.940;8.450;2023-11-18T05:42:10;72.97;;;16.73;;
6243;SDS011;3155;49.940;8.450;2023-11-18T05:44:37;73.18;;;15.43;;
6243;SDS011;3155;49.940;8.450;2023-11-18T05:47:05;59.38;;;14.57;;
6243;SDS011;3155;49.940;8.450;2023-11-18T05:49:33;66.03;;;15.55;;
6243;SDS011;3155;49.940;8.450;2023-11-18T05:52:01;64.30;;;14.87;;
6243;SDS011;3155;49.940;8.450;2023-11-18T05:54:28;59.42;;;14.25;;
6243;SDS011;3155;49.940;8.450;2023-11-18T05:56:57;68.70;;;14.48;;
6243;SDS011;3155;49.940;8.450;2023-11-18T05:59:26;58.05;;;13.93;;
6243;SDS011;3155;49.940;8.450;2023-11-18T06:01:53;62.53;;;13.57;;
6243;SDS011;3155;49.940;8.450;2023-11-18T06:04:20;73.97;;;15.07;;
6243;SDS011;3155;49.940;8.450;2023-11-18T06:06:48;67.93;;;15.10;;
6243;SDS011;3155;49.940;8.450;2023-11-18T06:09:15;45.45;;;14.18;;
6243;SDS011;3155;49.940;8.450;2023-11-18T06:11:47;42.55;;;13.25;;
6243;SDS011;3155;49.940;8.450;2023-11-18T06:14:16;30.35;;;12.45;;
6243;SDS011;3155;49.940;8.450;2023-11-18T06:16:43;31.70;;;12.60;;
6243;SDS011;3155;49.940;8.450;2023-11-18T06:19:10;30.25;;;12.27;;
6243;SDS011;3155;49.940;8.450;2023-11-18T06:21:37;29.20;;;11.98;;
6243;SDS011;3155;49.940;8.450;2023-11-18T06:24:05;33.75;;;12.20;;
6243;SDS011;3155;49.940;8.450;2023-11-18T06:26:33;26.98;;;11.38;;
6243;SDS011;3155;49.940;8.450;2023-11-18T06:29:03;27.35;;;11.68;;
6243;SDS011;3155;49.940;8.450;2023-11-18T06:31:32;22.27;;;10.82;;
6243;SDS011;3155;49.940;8.450;2023-11-18T06:33:59;24.40;;;11.68;;
6243;SDS011;3155;49.940;8.450;2023-11-18T06:36:28;23.85;;;11.05;;
6243;SDS011;3155;49.940;8.450;2023-11-18T06:38:57;22.33;;;10.60;;
6243;SDS011;3155;49.940;8.450;2023-11-18T06:41:25;20.45;;;10.63;;
6243;SDS011;3155;49.940;8.450;2023-11-18T06:44:00;23.73;;;11.15;;
6243;SDS011;3155;49.940;8.450;2023-11-18T06:46:30;20.67;;;10.33;;
6243;SDS011;3155;49.940;8.450;2023-11-18T06:49:00;28.20;;;12.10;;
6243;SDS011;3155;49.940;8.450;2023-11-18T06:51:33;25.77;;;11.50;;
6243;SDS011;3155;49.940;8.450;2023-11-18T06:54:05;25.88;;;11.65;;
6243;SDS011;3155;49.940;8.450;2023-11-18T06:56:36;25.25;;;12.20;;
6243;SDS011;3155;49.940;8.450;2023-11-18T06:59:04;26.38;;;12.50;;
6243;SDS011;3155;49.940;8.450;2023-11-18T07:01:33;26.67;;;12.18;;
6243;SDS011;3155;49.940;8.450;2023-11-18T07:04:02;23.60;;;12.65;;
6243;SDS011;3155;49.940;8.450;2023-11-18T07:06:30;24.70;;;12.15;;
6243;SDS011;3155;49.940;8.450;2023-11-18T07:08:57;22.73;;;12.00;;
6243;SDS011;3155;49.940;8.450;2023-11-18T07:11:26;22.95;;;11.95;;
6243;SDS011;3155;49.940;8.450;2023-11-18T07:13:54;21.40;;;11.43;;
6243;SDS011;3155;49.940;8.450;2023-11-18T07:16:24;20.83;;;11.30;;
6243;SDS011;3155;49.940;8.450;2023-11-18T07:18:52;25.38;;;12.48;;
6243;SDS011;3155;49.940;8.450;2023-11-18T07:21:19;22.98;;;11.77;;
6243;SDS011;3155;49.940;8.450;2023-11-18T07:23:46;22.70;;;11.88;;
6243;SDS011;3155;49.940;8.450;2023-11-18T07:26:13;22.77;;;11.52;;
6243;SDS011;3155;49.940;8.450;2023-11-18T07:28:41;21.30;;;11.77;;
6243;SDS011;3155;49.940;8.450;2023-11-18T07:31:11;20.77;;;11.63;;
6243;SDS011;3155;49.940;8.450;2023-11-18T07:33:38;19.42;;;10.65;;
6243;SDS011;3155;49.940;8.450;2023-11-18T07:36:10;18.30;;;10.70;;
6243;SDS011;3155;49.940;8.450;2023-11-18T07:38:38;18.35;;;10.55;;
6243;SDS011;3155;49.940;8.450;2023-11-18T07:41:07;16.08;;;10.40;;
6243;SDS011;3155;49.940;8.450;2023-11-18T07:43:35;21.35;;;11.90;;
6243;SDS011;3155;49.940;8.450;2023-11-18T07:46:10;17.90;;;10.88;;
6243;SDS011;3155;49.940;8.450;2023-11-18T07:48:41;22.63;;;11.60;;
6243;SDS011;3155;49.940;8.450;2023-11-18T07:51:08;21.50;;;11.90;;
6243;SDS011;3155;49.940;8.450;2023-11-18T07:53:38;20.65;;;12.32;;
6243;SDS011;3155;49.940;8.450;2023-11-18T07:56:05;18.15;;;11.27;;
6243;SDS011;3155;49.940;8.450;2023-11-18T07:58:34;19.25;;;11.80;;
6243;SDS011;3155;49.940;8.450;2023-11-18T08:01:03;21.13;;;12.60;;
6243;SDS011;3155;49.940;8.450;2023-11-18T08:03:35;20.70;;;11.85;;
6243;SDS011;3155;49.940;8.450;2023-11-18T08:06:03;18.42;;;11.82;;
6243;SDS011;3155;49.940;8.450;2023-11-18T08:08:36;20.70;;;11.88;;
6243;SDS011;3155;49.940;8.450;2023-11-18T08:11:10;18.75;;;11.43;;
6243;SDS011;3155;49.940;8.450;2023-11-18T08:13:40;22.63;;;11.90;;
6243;SDS011;3155;49.940;8.450;2023-11-18T08:16:07;21.30;;;12.13;;
6243;SDS011;3155;49.940;8.450;2023-11-18T08:18:35;21.15;;;12.38;;
6243;SDS011;3155;49.940;8.450;2023-11-18T08:21:03;23.10;;;12.40;;
6243;SDS011;3155;49.940;8.450;2023-11-18T08:23:33;23.15;;;12.65;;
6243;SDS011;3155;49.940;8.450;2023-11-18T08:26:03;28.30;;;12.77;;
6243;SDS011;3155;49.940;8.450;2023-11-18T08:28:32;29.43;;;13.20;;
6243;SDS011;3155;49.940;8.450;2023-11-18T08:30:59;25.17;;;13.13;;
6243;SDS011;3155;49.940;8.450;2023-11-18T08:33:27;23.60;;;12.03;;
6243;SDS011;3155;49.940;8.450;2023-11-18T08:35:55;25.60;;;12.23;;
6243;SDS011;3155;49.940;8.450;2023-11-18T08:38:23;27.75;;;13.15;;
6243;SDS011;3155;49.940;8.450;2023-11-18T08:40:50;25.83;;;13.10;;
6243;SDS011;3155;49.940;8.450;2023-11-18T08:43:18;37.88;;;13.10;;
6243;SDS011;3155;49.940;8.450;2023-11-18T08:45:47;35.10;;;12.98;;
6243;SDS011;3155;49.940;8.450;2023-11-18T08:48:16;28.17;;;12.90;;
6243;SDS011;3155;49.940;8.450;2023-11-18T08:50:44;34.05;;;13.40;;
6243;SDS011;3155;49.940;8.450;2023-11-18T08:53:13;31.08;;;13.07;;
6243;SDS011;3155;49.940;8.450;2023-11-18T08:55:44;29.27;;;12.90;;
6243;SDS011;3155;49.940;8.450;2023-11-18T08:58:20;34.13;;;13.52;;
6243;SDS011;3155;49.940;8.450;2023-11-18T09:00:56;28.27;;;12.88;;
6243;SDS011;3155;49.940;8.450;2023-11-18T09:03:31;44.53;;;13.10;;
6243;SDS011;3155;49.940;8.450;2023-11-18T09:06:05;37.95;;;13.52;;
6243;SDS011;3155;49.940;8.450;2023-11-18T09:08:54;45.97;;;13.52;;
6243;SDS011;3155;49.940;8.450;2023-11-18T09:11:24;44.78;;;13.27;;
6243;SDS011;3155;49.940;8.450;2023-11-18T09:13:55;41.55;;;13.52;;
6243;SDS011;3155;49.940;8.450;2023-11-18T09:16:27;47.40;;;14.32;;
6243;SDS011;3155;49.940;8.450;2023-11-18T09:18:59;40.28;;;14.60;;
6243;SDS011;3155;49.940;8.450;2023-11-18T09:21:30;55.00;;;14.75;;
6243;SDS011;3155;49.940;8.450;2023-11-18T09:24:02;42.33;;;13.93;;
6243;SDS011;3155;49.940;8.450;2023-11-18T09:26:34;46.65;;;14.95;;
6243;SDS011;3155;49.940;8.450;2023-11-18T09:29:01;51.90;;;15.88;;
6243;SDS011;3155;49.940;8.450;2023-11-18T09:31:29;41.13;;;15.05;;
6243;SDS011;3155;49.940;8.450;2023-11-18T09:33:58;41.90;;;16.10;;
6243;SDS011;3155;49.940;8.450;2023-11-18T09:36:30;46.90;;;17.08;;
6243;SDS011;3155;49.940;8.450;2023-11-18T09:38:57;46.22;;;18.73;;
6243;SDS011;3155;49.940;8.450;2023-11-18T09:41:24;44.50;;;17.83;;
6243;SDS011;3155;49.940;8.450;2023-11-18T09:43:54;43.25;;;18.35;;
6243;SDS011;3155;49.940;8.450;2023-11-18T09:46:24;40.40;;;18.00;;
6243;SDS011;3155;49.940;8.450;2023-11-18T09:51:26;37.70;;;18.20;;
6243;SDS011;3155;49.940;8.450;2023-11-18T09:54:00;35.78;;;18.15;;
6243;SDS011;3155;49.940;8.450;2023-11-18T09:56:31;31.63;;;17.35;;
6243;SDS011;3155;49.940;8.450;2023-11-18T09:59:08;34.50;;;17.80;;
6243;SDS011;3155;49.940;8.450;2023-11-18T10:01:42;31.00;;;18.02;;
6243;SDS011;3155;49.940;8.450;2023-11-18T10:04:10;34.70;;;18.55;;
6243;SDS011;3155;49.940;8.450;2023-11-18T10:06:38;27.17;;;16.57;;
6243;SDS011;3155;49.940;8.450;2023-11-18T10:09:06;29.55;;;16.88;;
6243;SDS011;3155;49.940;8.450;2023-11-18T10:11:44;30.52;;;15.93;;
6243;SDS011;3155;49.940;8.450;2023-11-18T10:14:13;27.15;;;15.98;;
6243;SDS011;3155;49.940;8.450;2023-11-18T10:16:44;23.70;;;15.18;;
6243;SDS011;3155;49.940;8.450;2023-11-18T10:19:13;24.27;;;15.07;;
6243;SDS011;3155;49.940;8.450;2023-11-18T10:21:43;23.48;;;14.30;;
6243;SDS011;3155;49.940;8.450;2023-11-18T10:24:15;24.15;;;15.15;;
6243;SDS011;3155;49.940;8.450;2023-11-18T10:26:55;23.65;;;15.40;;
6243;SDS011;3155;49.940;8.450;2023-11-18T10:29:27;23.67;;;15.67;;
6243;SDS011;3155;49.940;8.450;2023-11-18T10:32:05;27.43;;;17.17;;
6243;SDS011;3155;49.940;8.450;2023-11-18T10:34:35;26.60;;;16.95;;
6243;SDS011;3155;49.940;8.450;2023-11-18T10:37:02;30.33;;;17.87;;
6243;SDS011;3155;49.940;8.450;2023-11-18T10:39:31;28.33;;;18.13;;
6243;SDS011;3155;49.940;8.450;2023-11-18T10:41:59;31.40;;;18.63;;
6243;SDS011;3155;49.940;8.450;2023-11-18T10:44:35;29.23;;;18.40;;
6243;SDS011;3155;49.940;8.450;2023-11-18T10:47:02;27.57;;;17.87;;
6243;SDS011;3155;49.940;8.450;2023-11-18T10:49:29;26.63;;;17.88;;
6243;SDS011;3155;49.940;8.450;2023-11-18T10:52:04;27.95;;;17.70;;
6243;SDS011;3155;49.940;8.450;2023-11-18T10:54:34;26.60;;;18.03;;
6243;SDS011;3155;49.940;8.450;2023-11-18T10:57:03;23.77;;;15.82;;
6243;SDS011;3155;49.940;8.450;2023-11-18T10:59:34;22.20;;;16.15;;
6243;SDS011;3155;49.940;8.450;2023-11-18T11:02:17;24.60;;;16.40;;
6243;SDS011;3155;49.940;8.450;2023-11-18T11:04:45;25.17;;;16.55;;
6243;SDS011;3155;49.940;8.450;2023-11-18T11:07:15;23.92;;;16.08;;
6243;SDS011;3155;49.940;8.450;2023-11-18T11:09:45;24.02;;;16.48;;
6243;SDS011;3155;49.940;8.450;2023-11-18T11:12:12;23.10;;;16.20;;
6243;SDS011;3155;49.940;8.450;2023-11-18T11:14:46;24.25;;;15.65;;
6243;SDS011;3155;49.940;8.450;2023-11-18T11:17:17;20.52;;;14.45;;
6243;SDS011;3155;49.940;8.450;2023-11-18T11:22:39;21.25;;;13.60;;
6243;SDS011;3155;49.940;8.450;2023-11-18T11:25:20;16.42;;;11.85;;
6243;SDS011;3155;49.940;8.450;2023-11-18T11:27:59;16.05;;;11.65;;
6243;SDS011;3155;49.940;8.450;2023-11-18T11:30:28;16.60;;;11.38;;
6243;SDS011;3155;49.940;8.450;2023-11-18T11:35:33;15.57;;;9.77;;
6243;SDS011;3155;49.940;8.450;2023-11-18T11:38:03;13.02;;;9.15;;
6243;SDS011;3155;49.940;8.450;2023-11-18T11:40:36;13.60;;;9.30;;
6243;SDS011;3155;49.940;8.450;2023-11-18T11:43:04;13.93;;;9.38;;
6243;SDS011;3155;49.940;8.450;2023-11-18T11:45:35;15.85;;;10.55;;
6243;SDS011;3155;49.940;8.450;2023-11-18T11:48:03;13.95;;;9.57;;
6243;SDS011;3155;49.940;8.450;2023-11-18T11:50:54;17.30;;;9.82;;
6243;SDS011;3155;49.940;8.450;2023-11-18T11:53:23;14.50;;;10.18;;
6243;SDS011;3155;49.940;8.450;2023-11-18T11:55:52;12.00;;;9.35;;
6243;SDS011;3155;49.940;8.450;2023-11-18T11:58:29;13.73;;;9.93;;
6243;SDS011;3155;49.940;8.450;2023-11-18T12:04:00;15.15;;;9.40;;
6243;SDS011;3155;49.940;8.450;2023-11-18T12:06:39;14.73;;;9.70;;
6243;SDS011;3155;49.940;8.450;2023-11-18T12:09:08;12.63;;;9.20;;
6243;SDS011;3155;49.940;8.450;2023-11-18T12:11:39;12.90;;;9.32;;
6243;SDS011;3155;49.940;8.450;2023-11-18T12:14:12;14.35;;;9.80;;
6243;SDS011;3155;49.940;8.450;2023-11-18T12:16:59;15.60;;;9.07;;
6243;SDS011;3155;49.940;8.450;2023-11-18T12:19:31;13.70;;;8.65;;
6243;SDS011;3155;49.940;8.450;2023-11-18T12:22:18;10.70;;;8.15;;
6243;SDS011;3155;49.940;8.450;2023-11-18T12:35:30;11.98;;;7.70;;
6243;SDS011;3155;49.940;8.450;2023-11-18T12:38:09;12.02;;;7.68;;
6243;SDS011;3155;49.940;8.450;2023-11-18T12:43:07;9.57;;;7.03;;
6243;SDS011;3155;49.940;8.450;2023-11-18T12:45:42;11.27;;;7.10;;
6243;SDS011;3155;49.940;8.450;2023-11-18T12:48:17;9.32;;;6.55;;
6243;SDS011;3155;49.940;8.450;2023-11-18T12:50:53;10.15;;;6.88;;
6243;SDS011;3155;49.940;8.450;2023-11-18T12:53:23;9.00;;;6.50;;
6243;SDS011;3155;49.940;8.450;2023-11-18T12:55:50;11.85;;;7.18;;
6243;SDS011;3155;49.940;8.450;2023-11-18T12:58:19;8.75;;;6.93;;
6243;SDS011;3155;49.940;8.450;2023-11-18T13:00:49;9.90;;;6.83;;
6243;SDS011;3155;49.940;8.450;2023-11-18T13:03:16;10.57;;;7.45;;
6243;SDS011;3155;49.940;8.450;2023-11-18T13:05:45;10.00;;;6.53;;
6243;SDS011;3155;49.940;8.450;2023-11-18T13:08:12;8.82;;;6.97;;
6243;SDS011;3155;49.940;8.450;2023-11-18T13:10:41;9.20;;;6.57;;
6243;SDS011;3155;49.940;8.450;2023-11-18T13:13:10;8.38;;;6.60;;
6243;SDS011;3155;49.940;8.450;2023-11-18T13:15:40;9.23;;;6.20;;
6243;SDS011;3155;49.940;8.450;2023-11-18T13:18:07;8.70;;;6.63;;
6243;SDS011;3155;49.940;8.450;2023-11-18T13:20:35;9.02;;;7.05;;
6243;SDS011;3155;49.940;8.450;2023-11-18T13:23:03;9.48;;;6.55;;
6243;SDS011;3155;49.940;8.450;2023-11-18T13:25:36;10.98;;;6.53;;
6243;SDS011;3155;49.940;8.450;2023-11-18T13:28:07;8.73;;;6.55;;
6243;SDS011;3155;49.940;8.450;2023-11-18T13:30:36;10.43;;;7.00;;
6243;SDS011;3155;49.940;8.450;2023-11-18T13:33:06;8.50;;;6.07;;
6243;SDS011;3155;49.940;8.450;2023-11-18T13:35:34;10.35;;;6.13;;
6243;SDS011;3155;49.940;8.450;2023-11-18T13:38:02;9.07;;;6.43;;
6243;SDS011;3155;49.940;8.450;2023-11-18T13:40:46;8.27;;;6.43;;
6243;SDS011;3155;49.940;8.450;2023-11-18T13:43:17;11.10;;;6.72;;
6243;SDS011;3155;49.940;8.450;2023-11-18T13:45:54;9.70;;;7.03;;
6243;SDS011;3155;49.940;8.450;2023-11-18T13:48:27;9.40;;;6.85;;
6243;SDS011;3155;49.940;8.450;2023-11-18T13:50:54;8.10;;;6.22;;
6243;SDS011;3155;49.940;8.450;2023-11-18T13:53:22;9.38;;;6.32;;
6243;SDS011;3155;49.940;8.450;2023-11-18T13:55:49;9.43;;;6.70;;
6243;SDS011;3155;49.940;8.450;2023-11-18T13:58:16;7.10;;;5.90;;
6243;SDS011;3155;49.940;8.450;2023-11-18T14:00:46;7.17;;;5.73;;
6243;SDS011;3155;49.940;8.450;2023-11-18T14:03:15;7.07;;;5.40;;
6243;SDS011;3155;49.940;8.450;2023-11-18T14:05:42;7.03;;;4.72;;
6243;SDS011;3155;49.940;8.450;2023-11-18T14:08:16;7.28;;;4.75;;
6243;SDS011;3155;49.940;8.450;2023-11-18T14:10:44;6.50;;;4.60;;
6243;SDS011;3155;49.940;8.450;2023-11-18T14:13:17;9.13;;;5.00;;
6243;SDS011;3155;49.940;8.450;2023-11-18T14:15:45;6.05;;;4.47;;
6243;SDS011;3155;49.940;8.450;2023-11-18T14:18:13;5.78;;;4.30;;
6243;SDS011;3155;49.940;8.450;2023-11-18T14:20:41;5.70;;;4.18;;
6243;SDS011;3155;49.940;8.450;2023-11-18T14:23:08;5.45;;;4.20;;
6243;SDS011;3155;49.940;8.450;2023-11-18T14:25:35;4.70;;;3.78;;
6243;SDS011;3155;49.940;8.450;2023-11-18T14:28:09;4.50;;;3.60;;
6243;SDS011;3155;49.940;8.450;2023-11-18T14:30:39;5.28;;;3.35;;
6243;SDS011;3155;49.940;8.450;2023-11-18T14:33:09;9.02;;;3.63;;
6243;SDS011;3155;49.940;8.450;2023-11-18T14:35:36;4.80;;;3.25;;
6243;SDS011;3155;49.940;8.450;2023-11-18T14:38:04;5.68;;;3.22;;
6243;SDS011;3155;49.940;8.450;2023-11-18T14:40:32;5.23;;;3.50;;
6243;SDS011;3155;49.940;8.450;2023-11-18T14:42:59;5.07;;;3.05;;
6243;SDS011;3155;49.940;8.450;2023-11-18T14:45:26;3.30;;;3.00;;
6243;SDS011;3155;49.940;8.450;2023-11-18T14:47:53;4.00;;;3.15;;
6243;SDS011;3155;49.940;8.450;2023-11-18T14:50:22;4.28;;;3.22;;
6243;SDS011;3155;49.940;8.450;2023-11-18T14:52:52;3.80;;;3.40;;
6243;SDS011;3155;49.940;8.450;2023-11-18T14:55:26;4.38;;;3.25;;
6243;SDS011;3155;49.940;8.450;2023-11-18T14:57:53;6.22;;;3.28;;
6243;SDS011;3155;49.940;8.450;2023-11-18T15:00:22;5.45;;;3.10;;
6243;SDS011;3155;49.940;8.450;2023-11-18T15:02:52;5.40;;;2.88;;
6243;SDS011;3155;49.940;8.450;2023-11-18T15:05:24;6.70;;;3.80;;
6243;SDS011;3155;49.940;8.450;2023-11-18T15:07:53;7.93;;;4.20;;
6243;SDS011;3155;49.940;8.450;2023-11-18T15:10:21;7.63;;;4.68;;
6243;SDS011;3155;49.940;8.450;2023-11-18T15:12:49;5.95;;;3.95;;
6243;SDS011;3155;49.940;8.450;2023-11-18T15:15:20;6.57;;;3.65;;
6243;SDS011;3155;49.940;8.450;2023-11-18T15:18:01;4.27;;;3.50;;
6243;SDS011;3155;49.940;8.450;2023-11-18T15:20:36;5.68;;;3.53;;
6243;SDS011;3155;49.940;8.450;2023-11-18T15:23:06;7.13;;;3.80;;
6243;SDS011;3155;49.940;8.450;2023-11-18T15:25:33;6.07;;;3.83;;
6243;SDS011;3155;49.940;8.450;2023-11-18T15:28:01;4.93;;;3.60;;
6243;SDS011;3155;49.940;8.450;2023-11-18T15:30:28;4.68;;;3.53;;